createdAt,value
2023-12-30T00:01:57.043Z,12.44
2023-12-30T00:04:44.206Z,13.54
2023-12-30T00:07:31.547Z,12.89
2023-12-30T00:10:18.467Z,12.38
2023-12-30T00:13:05.153Z,13.89
2023-12-30T00:15:52.100Z,13.34
2023-12-30T00:18:38.627Z,12.67
2023-12-30T00:21:25.011Z,13.66
2023-12-30T00:24:11.394Z,14.36
2023-12-30T00:26:58.092Z,12.80
2023-12-30T00:29:44.704Z,13.13
2023-12-30T00:32:31.429Z,13.90
2023-12-30T00:35:18.094Z,14.40
2023-12-30T00:38:04.351Z,14.29
2023-12-30T00:40:50.948Z,12.87
2023-12-30T00:43:38.628Z,13.19
2023-12-30T00:46:25.316Z,14.12
2023-12-30T00:49:12.868Z,14.47
2023-12-30T00:52:00.246Z,13.21
2023-12-30T00:54:50.867Z,12.62
2023-12-30T00:57:38.242Z,13.51
2023-12-30T01:00:25.152Z,14.26
2023-12-30T01:03:11.538Z,14.67
2023-12-30T01:05:58.414Z,14.93
2023-12-30T01:08:44.861Z,14.50
2023-12-30T01:11:31.705Z,13.24
2023-12-30T01:14:18.163Z,13.23
2023-12-30T01:17:05.043Z,14.34
2023-12-30T01:19:52.167Z,15.05
2023-12-30T01:22:38.867Z,15.46
2023-12-30T01:25:25.429Z,15.12
2023-12-30T01:28:11.944Z,13.80
2023-12-30T01:30:58.471Z,13.12
2023-12-30T01:33:46.726Z,14.09
2023-12-30T01:36:33.003Z,14.82
2023-12-30T01:39:19.593Z,15.23
2023-12-30T01:42:06.351Z,14.18
2023-12-30T01:44:53.233Z,12.66
2023-12-30T01:47:40.231Z,12.81
2023-12-30T01:50:27.677Z,13.65
2023-12-30T01:53:16.768Z,14.27
2023-12-30T01:56:04.493Z,14.81
2023-12-30T01:58:52.834Z,14.81
2023-12-30T02:01:39.407Z,13.59
2023-12-30T02:04:26.742Z,12.24
2023-12-30T02:07:13.334Z,11.95
2023-12-30T02:10:00.121Z,13.22
2023-12-30T02:12:46.896Z,14.02
2023-12-30T02:15:33.474Z,14.13
2023-12-30T02:18:19.941Z,14.24
2023-12-30T02:21:08.031Z,14.42
2023-12-30T02:23:55.670Z,14.82
2023-12-30T02:26:42.278Z,14.78
2023-12-30T02:29:29.271Z,14.57
2023-12-30T02:32:15.891Z,13.25
2023-12-30T02:35:02.421Z,12.29
2023-12-30T02:37:49.182Z,12.49
2023-12-30T02:40:35.861Z,12.57
2023-12-30T02:43:25.686Z,12.63
2023-12-30T02:46:12.664Z,12.74
2023-12-30T02:49:03.776Z,12.75
2023-12-30T02:51:50.415Z,12.61
2023-12-30T02:54:37.597Z,13.13
2023-12-30T02:57:27.107Z,13.12
2023-12-30T03:00:14.504Z,12.99
2023-12-30T03:03:01.458Z,13.27
2023-12-30T03:05:48.461Z,13.17
2023-12-30T03:08:34.925Z,13.20
2023-12-30T03:11:22.759Z,13.05
2023-12-30T03:14:09.571Z,13.23
2023-12-30T03:16:55.755Z,12.87
2023-12-30T03:19:42.508Z,11.32
2023-12-30T03:22:29.356Z,11.28
2023-12-30T03:25:16.131Z,12.16
2023-12-30T03:28:02.856Z,12.84
2023-12-30T03:30:50.254Z,13.41
2023-12-30T03:33:37.203Z,13.52
2023-12-30T03:36:24.050Z,13.55
2023-12-30T03:39:11.483Z,13.45
2023-12-30T03:41:58.051Z,13.54
2023-12-30T03:44:44.366Z,13.65
2023-12-30T03:47:32.004Z,13.29
2023-12-30T03:50:19.056Z,11.46
2023-12-30T03:53:06.452Z,11.16
2023-12-30T03:55:53.352Z,12.28
2023-12-30T03:58:39.897Z,12.75
2023-12-30T04:01:27.653Z,12.96
2023-12-30T04:04:14.041Z,11.45
2023-12-30T04:07:00.352Z,11.67
2023-12-30T04:09:47.261Z,12.32
2023-12-30T04:12:36.474Z,12.94
2023-12-30T04:15:23.397Z,13.11
2023-12-30T04:18:09.675Z,11.54
2023-12-30T04:20:56.773Z,11.41
2023-12-30T04:23:43.326Z,12.02
2023-12-30T04:26:30.057Z,12.31
2023-12-30T04:29:17.067Z,12.27
2023-12-30T04:32:04.186Z,12.20
2023-12-30T04:34:50.932Z,12.40
2023-12-30T04:37:37.876Z,12.63
2023-12-30T04:40:24.795Z,12.63
2023-12-30T04:43:11.950Z,12.82
2023-12-30T04:45:58.397Z,12.94
2023-12-30T04:48:45.280Z,13.00
2023-12-30T04:51:32.029Z,12.91
2023-12-30T04:54:18.279Z,13.27
2023-12-30T04:57:04.983Z,11.40
2023-12-30T04:59:51.501Z,11.03
2023-12-30T05:02:38.154Z,12.29
2023-12-30T05:05:25.078Z,13.19
2023-12-30T05:08:11.692Z,11.74
2023-12-30T05:10:59.693Z,10.91
2023-12-30T05:13:47.374Z,11.96
2023-12-30T05:16:34.523Z,12.70
2023-12-30T05:19:21.787Z,12.78
2023-12-30T05:22:08.444Z,13.20
2023-12-30T05:24:55.542Z,12.03
2023-12-30T05:27:42.199Z,10.70
2023-12-30T05:30:30.170Z,11.11
2023-12-30T05:33:17.189Z,12.15
2023-12-30T05:36:04.477Z,12.58
2023-12-30T05:38:51.257Z,12.54
2023-12-30T05:41:40.588Z,12.55
2023-12-30T05:44:27.011Z,12.72
2023-12-30T05:47:13.508Z,13.09
2023-12-30T05:50:00.074Z,11.43
2023-12-30T05:52:46.924Z,11.70
2023-12-30T05:55:33.786Z,12.13
2023-12-30T05:58:20.355Z,12.71
2023-12-30T06:01:07.103Z,11.94
2023-12-30T06:03:53.916Z,11.02
2023-12-30T06:06:41.496Z,11.83
2023-12-30T06:09:28.303Z,12.47
2023-12-30T06:12:14.960Z,13.02
2023-12-30T06:15:01.771Z,11.97
2023-12-30T06:17:48.398Z,11.21
2023-12-30T06:20:34.868Z,11.69
2023-12-30T06:23:21.268Z,12.18
2023-12-30T06:26:08.252Z,12.55
2023-12-30T06:28:54.654Z,12.59
2023-12-30T06:31:43.000Z,11.20
2023-12-30T06:34:29.927Z,11.84
2023-12-30T06:37:18.067Z,12.35
2023-12-30T06:40:05.627Z,12.10
2023-12-30T06:42:51.839Z,12.40
2023-12-30T06:45:38.986Z,12.35
2023-12-30T06:48:25.449Z,12.30
2023-12-30T06:51:12.652Z,12.53
2023-12-30T06:53:58.981Z,12.86
2023-12-30T06:56:45.630Z,11.26
2023-12-30T06:59:32.260Z,11.11
2023-12-30T07:02:19.019Z,11.66
2023-12-30T07:05:06.897Z,12.20
2023-12-30T07:07:53.260Z,12.29
2023-12-30T07:10:40.468Z,12.38
2023-12-30T07:13:27.127Z,11.14
2023-12-30T07:16:16.700Z,11.64
2023-12-30T07:19:03.475Z,12.48
2023-12-30T07:21:50.354Z,12.80
2023-12-30T07:24:38.513Z,12.97
2023-12-30T07:27:24.840Z,11.95
2023-12-30T07:30:12.216Z,10.99
2023-12-30T07:32:58.993Z,11.44
2023-12-30T07:35:45.756Z,12.21
2023-12-30T07:38:32.982Z,12.79
2023-12-30T07:41:19.402Z,11.95
2023-12-30T07:44:06.010Z,10.91
2023-12-30T07:46:52.690Z,12.13
2023-12-30T07:49:39.255Z,12.70
2023-12-30T07:52:26.879Z,11.47
2023-12-30T07:55:13.554Z,12.07
2023-12-30T07:58:00.532Z,12.53
2023-12-30T08:00:48.382Z,12.87
2023-12-30T08:03:35.147Z,11.97
2023-12-30T08:06:22.122Z,11.00
2023-12-30T08:09:09.275Z,11.73
2023-12-30T08:12:02.151Z,12.53
2023-12-30T08:14:50.133Z,12.34
2023-12-30T08:17:36.889Z,10.79
2023-12-30T08:20:23.646Z,11.37
2023-12-30T08:23:10.379Z,12.14
2023-12-30T08:25:57.247Z,12.79
2023-12-30T08:28:43.929Z,11.58
2023-12-30T08:31:30.284Z,11.12
2023-12-30T08:34:17.508Z,12.03
2023-12-30T08:37:09.589Z,12.11
2023-12-30T08:39:56.562Z,10.70
2023-12-30T08:42:45.790Z,11.67
2023-12-30T08:45:33.145Z,11.02
2023-12-30T08:48:20.134Z,10.14
2023-12-30T08:51:06.851Z,10.87
2023-12-30T08:53:54.784Z,9.71
2023-12-30T08:56:41.617Z,10.80
2023-12-30T08:59:28.407Z,10.07
2023-12-30T09:02:15.452Z,9.20
2023-12-30T09:05:04.101Z,10.74
2023-12-30T09:07:51.087Z,10.02
2023-12-30T09:10:39.585Z,9.18
2023-12-30T09:13:25.894Z,10.55
2023-12-30T09:16:13.090Z,11.48
2023-12-30T09:18:59.758Z,10.09
2023-12-30T09:21:46.503Z,9.64
2023-12-30T09:24:33.072Z,10.89
2023-12-30T09:27:19.953Z,10.49
2023-12-30T09:30:07.527Z,9.31
2023-12-30T09:32:54.127Z,10.24
2023-12-30T09:35:41.061Z,10.23
2023-12-30T09:38:27.658Z,9.23
2023-12-30T09:41:14.974Z,9.70
2023-12-30T09:44:04.344Z,10.45
2023-12-30T09:46:52.128Z,9.65
2023-12-30T09:49:38.858Z,9.28
2023-12-30T09:52:26.154Z,10.73
2023-12-30T09:55:13.194Z,10.59
2023-12-30T09:58:01.100Z,9.43
2023-12-30T10:00:48.323Z,9.34
2023-12-30T10:03:37.200Z,10.71
2023-12-30T10:06:25.111Z,9.77
2023-12-30T10:09:13.194Z,8.83
2023-12-30T10:11:59.885Z,10.32
2023-12-30T10:14:46.898Z,10.53
2023-12-30T10:17:33.399Z,9.29
2023-12-30T10:20:24.700Z,9.81
2023-12-30T10:23:11.659Z,11.28
2023-12-30T10:25:58.443Z,10.53
2023-12-30T10:28:45.974Z,9.83
2023-12-30T10:31:32.867Z,11.26
2023-12-30T10:34:22.236Z,11.73
2023-12-30T10:37:09.649Z,10.90
2023-12-30T10:39:57.009Z,9.99
2023-12-30T10:42:43.806Z,11.12
2023-12-30T10:45:31.267Z,12.17
2023-12-30T10:48:19.463Z,11.09
2023-12-30T10:51:07.797Z,10.47
2023-12-30T10:54:05.700Z,11.65
2023-12-30T10:57:07.560Z,11.98
2023-12-30T10:59:58.322Z,10.66
2023-12-30T11:02:46.774Z,9.48
2023-12-30T11:05:57.365Z,10.30
2023-12-30T11:08:45.679Z,11.37
2023-12-30T11:11:32.717Z,10.59
2023-12-30T11:14:20.690Z,9.51
2023-12-30T11:17:07.648Z,10.77
2023-12-30T11:19:56.444Z,11.46
2023-12-30T11:22:43.420Z,10.26
2023-12-30T11:25:36.777Z,9.31
2023-12-30T11:28:23.920Z,10.39
2023-12-30T11:31:10.733Z,11.53
2023-12-30T11:34:00.249Z,10.63
2023-12-30T11:36:48.418Z,9.50
2023-12-30T11:42:33.984Z,11.20
2023-12-30T11:45:28.253Z,10.63
2023-12-30T11:48:16.438Z,9.65
2023-12-30T11:51:02.970Z,10.45
2023-12-30T11:53:49.628Z,11.59
2023-12-30T11:56:36.381Z,11.26
2023-12-30T11:59:22.918Z,10.14
2023-12-30T12:02:12.575Z,9.90
2023-12-30T12:04:59.333Z,11.36
2023-12-30T12:07:46.302Z,11.29
2023-12-30T12:10:34.262Z,10.01
2023-12-30T12:13:22.482Z,9.72
2023-12-30T12:16:09.541Z,10.91
2023-12-30T12:18:56.816Z,11.57
2023-12-30T12:21:43.483Z,10.46
2023-12-30T12:24:33.085Z,9.46
2023-12-30T12:27:23.719Z,11.04
2023-12-30T12:30:11.829Z,10.50
2023-12-30T12:32:58.408Z,9.96
2023-12-30T12:35:45.477Z,11.37
2023-12-30T12:38:32.180Z,11.92
2023-12-30T12:41:18.933Z,10.53
2023-12-30T12:44:06.233Z,11.27
2023-12-30T12:46:52.905Z,12.59
2023-12-30T12:49:40.298Z,10.72
2023-12-30T12:52:26.824Z,10.46
2023-12-30T12:55:14.133Z,11.68
2023-12-30T12:58:00.651Z,11.50
2023-12-30T13:00:47.653Z,10.10
2023-12-30T13:03:34.732Z,11.04
2023-12-30T13:06:23.975Z,11.07
2023-12-30T13:10:07.435Z,9.93
2023-12-30T13:12:54.674Z,10.92
2023-12-30T13:15:41.700Z,11.53
2023-12-30T13:18:29.599Z,10.20
2023-12-30T13:21:16.702Z,9.97
2023-12-30T13:24:03.384Z,11.46
2023-12-30T13:26:50.491Z,10.37
2023-12-30T13:29:38.146Z,9.73
2023-12-30T13:32:28.858Z,10.96
2023-12-30T13:35:15.660Z,11.46
2023-12-30T13:38:07.825Z,10.13
2023-12-30T13:40:54.769Z,9.84
2023-12-30T13:43:45.026Z,11.31
2023-12-30T13:46:32.996Z,10.14
2023-12-30T13:49:41.864Z,9.96
2023-12-30T13:52:29.831Z,11.78
2023-12-30T13:55:19.747Z,10.62
2023-12-30T13:58:06.820Z,9.69
2023-12-30T14:00:53.513Z,11.04
2023-12-30T14:03:41.413Z,11.73
2023-12-30T14:06:34.825Z,10.00
2023-12-30T14:09:33.330Z,10.10
2023-12-30T14:12:21.052Z,12.03
2023-12-30T14:15:13.666Z,10.42
2023-12-30T14:18:00.566Z,9.78
2023-12-30T14:20:48.385Z,11.10
2023-12-30T14:23:35.039Z,10.73
2023-12-30T14:26:22.427Z,9.59
2023-12-30T14:29:09.690Z,10.42
2023-12-30T14:31:56.390Z,11.57
2023-12-30T14:34:43.012Z,10.17
2023-12-30T14:37:29.944Z,9.39
2023-12-30T14:40:17.629Z,10.95
2023-12-30T14:43:04.719Z,11.11
2023-12-30T14:45:51.547Z,9.88
2023-12-30T14:48:39.149Z,9.70
2023-12-30T14:51:26.375Z,11.27
2023-12-30T14:54:13.319Z,11.27
2023-12-30T14:57:00.288Z,9.81
2023-12-30T14:59:46.994Z,9.80
2023-12-30T15:02:35.096Z,11.61
2023-12-30T15:05:23.628Z,11.04
2023-12-30T15:08:10.691Z,9.47
2023-12-30T15:10:57.478Z,9.41
2023-12-30T15:13:43.764Z,11.24
2023-12-30T15:16:30.302Z,11.73
2023-12-30T15:19:17.043Z,10.53
2023-12-30T15:22:04.005Z,9.21
2023-12-30T15:24:51.121Z,9.01
2023-12-30T15:27:37.872Z,10.82
2023-12-30T15:30:24.610Z,11.70
2023-12-30T15:33:12.040Z,10.34
2023-12-30T15:36:04.227Z,9.16
2023-12-30T15:38:50.914Z,9.65
2023-12-30T15:41:37.299Z,11.17
2023-12-30T15:44:26.157Z,10.86
2023-12-30T15:47:13.747Z,9.81
2023-12-30T15:50:00.759Z,9.85
2023-12-30T15:52:47.761Z,11.68
2023-12-30T15:55:35.315Z,11.01
2023-12-30T15:58:22.066Z,9.64
2023-12-30T16:01:08.710Z,11.03
2023-12-30T16:03:55.872Z,11.28
2023-12-30T16:06:43.009Z,9.83
2023-12-30T16:09:29.525Z,9.81
2023-12-30T16:12:16.047Z,11.35
2023-12-30T16:15:02.659Z,11.22
2023-12-30T16:17:49.827Z,9.78
2023-12-30T16:20:36.575Z,9.90
2023-12-30T16:23:23.104Z,11.53
2023-12-30T16:26:10.223Z,10.28
2023-12-30T16:28:58.532Z,9.25
2023-12-30T16:31:45.155Z,10.47
2023-12-30T16:34:32.299Z,11.01
2023-12-30T16:37:23.923Z,9.90
2023-12-30T16:40:11.724Z,9.88
2023-12-30T16:42:58.122Z,11.39
2023-12-30T16:45:46.286Z,10.47
2023-12-30T16:48:34.462Z,9.67
2023-12-30T16:51:21.772Z,10.67
2023-12-30T16:54:09.618Z,11.55
2023-12-30T16:56:57.734Z,11.21
2023-12-30T16:59:44.357Z,9.53
2023-12-30T17:02:31.041Z,10.00
2023-12-30T17:05:17.962Z,11.00
2023-12-30T17:08:05.352Z,10.15
2023-12-30T17:10:52.107Z,9.21
2023-12-30T17:13:43.187Z,9.91
2023-12-30T17:16:37.359Z,10.76
2023-12-30T17:19:23.700Z,10.85
2023-12-30T17:22:10.437Z,9.19
2023-12-30T17:24:56.749Z,9.02
2023-12-30T17:27:43.149Z,10.31
2023-12-30T17:30:29.476Z,11.26
2023-12-30T17:33:16.367Z,9.35
2023-12-30T17:36:03.289Z,9.40
2023-12-30T17:38:50.323Z,10.56
2023-12-30T17:41:37.002Z,10.69
2023-12-30T17:44:23.623Z,9.32
2023-12-30T17:47:11.109Z,10.15
2023-12-30T17:49:58.097Z,11.01
2023-12-30T17:52:45.002Z,10.24
2023-12-30T17:55:33.989Z,8.79
2023-12-30T17:58:21.983Z,9.56
2023-12-30T18:01:28.620Z,10.63
2023-12-30T18:04:15.631Z,11.46
2023-12-30T18:07:02.660Z,10.60
2023-12-30T18:09:49.386Z,9.07
2023-12-30T18:12:37.742Z,9.65
2023-12-30T18:15:24.377Z,10.61
2023-12-30T18:18:12.101Z,10.96
2023-12-30T18:20:58.810Z,9.61
2023-12-30T18:23:45.545Z,8.46
2023-12-30T18:26:32.581Z,9.69
2023-12-30T18:29:19.580Z,10.53
2023-12-30T18:32:07.962Z,10.93
2023-12-30T18:34:54.600Z,11.21
2023-12-30T18:37:42.832Z,9.42
2023-12-30T18:40:29.701Z,8.24
2023-12-30T18:43:16.571Z,9.12
2023-12-30T18:46:03.349Z,9.65
2023-12-30T18:48:50.133Z,10.11
2023-12-30T18:51:36.774Z,10.77
2023-12-30T18:54:22.993Z,10.68
2023-12-30T18:57:09.516Z,9.11
2023-12-30T18:59:56.075Z,8.29
2023-12-30T19:02:42.994Z,9.37
2023-12-30T19:05:30.417Z,10.00
2023-12-30T19:08:17.285Z,10.31
2023-12-30T19:11:04.930Z,10.42
2023-12-30T19:13:51.846Z,8.90
2023-12-30T19:16:38.688Z,7.89
2023-12-30T19:19:25.061Z,8.95
2023-12-30T19:22:12.804Z,10.03
2023-12-30T19:24:59.887Z,10.77
2023-12-30T19:27:47.228Z,10.47
2023-12-30T19:30:34.058Z,8.74
2023-12-30T19:33:21.054Z,7.48
2023-12-30T19:36:09.736Z,7.78
2023-12-30T19:38:56.268Z,9.26
2023-12-30T19:41:43.946Z,10.30
2023-12-30T19:44:30.516Z,10.40
2023-12-30T19:47:17.055Z,8.96
2023-12-30T19:50:04.896Z,7.63
2023-12-30T19:52:52.095Z,7.25
2023-12-30T19:55:38.999Z,8.76
2023-12-30T19:58:28.885Z,9.94
2023-12-30T20:01:20.336Z,10.48
2023-12-30T20:04:06.910Z,9.44
2023-12-30T20:06:53.755Z,8.00
2023-12-30T20:09:42.448Z,6.95
2023-12-30T20:12:29.953Z,6.73
2023-12-30T20:15:18.062Z,8.22
2023-12-30T20:18:05.451Z,9.43
2023-12-30T20:20:52.205Z,10.25
2023-12-30T20:23:38.706Z,10.30
2023-12-30T20:26:25.642Z,8.74
2023-12-30T20:29:11.845Z,7.38
2023-12-30T20:31:58.611Z,7.05
2023-12-30T20:34:46.900Z,8.47
2023-12-30T20:37:33.588Z,9.66
2023-12-30T20:40:20.540Z,10.36
2023-12-30T20:43:07.315Z,9.90
2023-12-30T20:45:54.038Z,8.22
2023-12-30T20:48:43.766Z,6.95
2023-12-30T20:51:30.028Z,6.03
2023-12-30T20:54:17.531Z,5.82
2023-12-30T20:57:04.235Z,7.20
2023-12-30T20:59:50.907Z,8.22
2023-12-30T21:02:39.266Z,8.91
2023-12-30T21:05:25.745Z,9.30
2023-12-30T21:08:12.751Z,9.67
2023-12-30T21:10:59.408Z,9.70
2023-12-30T21:13:46.818Z,8.38
2023-12-30T21:16:33.287Z,7.20
2023-12-30T21:19:20.136Z,6.88
2023-12-30T21:22:07.023Z,8.22
2023-12-30T21:24:53.784Z,9.25
2023-12-30T21:27:40.432Z,9.95
2023-12-30T21:30:27.004Z,9.06
2023-12-30T21:33:13.702Z,7.56
2023-12-30T21:36:00.324Z,7.42
2023-12-30T21:38:46.894Z,8.63
2023-12-30T21:41:33.314Z,9.36
2023-12-30T21:44:19.950Z,10.10
2023-12-30T21:47:06.873Z,9.95
2023-12-30T21:49:53.489Z,8.38
2023-12-30T21:52:40.498Z,7.09
2023-12-30T21:55:27.266Z,7.35
2023-12-30T21:58:14.288Z,8.67
2023-12-30T22:01:02.472Z,9.57
2023-12-30T22:03:49.718Z,10.03
2023-12-30T22:06:36.432Z,10.29
2023-12-30T22:09:23.006Z,9.89
2023-12-30T22:12:10.516Z,8.26
2023-12-30T22:14:56.783Z,7.41
2023-12-30T22:17:43.617Z,8.58
2023-12-30T22:20:30.533Z,9.79
2023-12-30T22:23:19.295Z,9.87
2023-12-30T22:26:06.449Z,8.34
2023-12-30T22:28:53.031Z,6.96
2023-12-30T22:31:43.118Z,6.37
2023-12-30T22:34:29.609Z,7.72
2023-12-30T22:37:17.747Z,8.82
2023-12-30T22:40:05.336Z,9.42
2023-12-30T22:42:52.009Z,9.35
2023-12-30T22:45:42.192Z,7.84
2023-12-30T22:48:28.690Z,6.45
2023-12-30T22:51:15.617Z,5.86
2023-12-30T22:54:02.367Z,7.19
2023-12-30T22:56:49.314Z,8.49
2023-12-30T22:59:36.694Z,8.64
2023-12-30T23:02:23.715Z,7.14
2023-12-30T23:05:11.279Z,5.78
2023-12-30T23:07:58.711Z,4.95
2023-12-30T23:10:45.325Z,5.99
2023-12-30T23:13:32.208Z,7.41
2023-12-30T23:16:18.694Z,8.26
2023-12-30T23:19:05.678Z,8.85
2023-12-30T23:21:53.430Z,8.16
2023-12-30T23:24:40.386Z,6.67
2023-12-30T23:27:26.970Z,5.53
2023-12-30T23:30:15.087Z,5.10
2023-12-30T23:33:01.826Z,6.31
2023-12-30T23:35:48.813Z,7.40
2023-12-30T23:38:35.818Z,8.15
2023-12-30T23:41:22.178Z,8.75
2023-12-30T23:44:08.815Z,8.07
2023-12-30T23:46:55.617Z,6.60
2023-12-30T23:49:42.085Z,5.50
2023-12-30T23:52:28.714Z,4.74
2023-12-30T23:55:15.800Z,5.34
2023-12-30T23:58:03.232Z,6.80
